Time;durP1;ratioP1;P1;durP2;ratioP2;P2;SDS_P1;SDS_P2;PMS_P1;PMS_P2;Temp;Humidity;BMP_temperature;BMP_pressure;BME280_temperature;BME280_humidity;BME280_pressure;Samples;Min_cycle;Max_cycle;Signal;HPM_P1;HPM_P2
2023/11/13 00:01:54;;;;;;;21.00;16.70;;;;;;;6.08;84.83;99356.54;101806;1279;138790;-73
2023/11/13 00:04:21;;;;;;;21.10;17.40;;;;;;;6.11;84.85;99356.84;101863;1280;107041;-74
2023/11/13 00:06:48;;;;;;;22.30;16.70;;;;;;;6.15;85.08;99360.70;101693;1279;138316;-72
2023/11/13 00:09:15;;;;;;;22.30;17.60;;;;;;;6.13;84.70;99357.64;102122;1282;111126;-73
2023/11/13 00:11:42;;;;;;;23.20;17.70;;;;;;;6.13;84.76;99362.32;101949;1279;107742;-74
2023/11/13 00:14:09;;;;;;;21.40;18.00;;;;;;;6.12;84.73;99367.35;101826;1279;137697;-72
2023/11/13 00:16:37;;;;;;;20.20;16.40;;;;;;;6.09;84.64;99370.52;101651;1282;107855;-73
2023/11/13 00:19:04;;;;;;;21.20;15.80;;;;;;;6.04;84.71;99371.14;101388;1279;140069;-73
2023/11/13 00:21:32;;;;;;;19.10;15.30;;;;;;;6.01;84.89;99366.92;101578;1279;113555;-72
2023/11/13 00:23:59;;;;;;;19.30;14.30;;;;;;;6.01;85.06;99371.06;101573;1280;138860;-73
2023/11/13 00:26:26;;;;;;;18.30;14.70;;;;;;;6.02;84.86;99370.52;102034;1280;98297;-70
2023/11/13 00:28:54;;;;;;;19.90;16.10;;;;;;;6.06;85.08;99377.48;101798;1282;109207;-72
2023/11/13 00:31:21;;;;;;;21.00;16.90;;;;;;;6.08;84.94;99376.23;101531;1280;138082;-73
2023/11/13 00:33:49;;;;;;;19.70;16.60;;;;;;;6.11;84.91;99376.52;101522;1284;111556;-72
2023/11/13 00:36:16;;;;;;;21.00;16.70;;;;;;;6.11;84.99;99379.27;101481;1279;138073;-71
2023/11/13 00:38:43;;;;;;;20.30;15.80;;;;;;;6.05;84.83;99382.00;101639;1279;98375;-72
2023/11/13 00:41:14;;;;;;;20.00;15.00;;;;;;;6.01;84.82;99384.52;101595;1282;107818;-72
2023/11/13 00:43:41;;;;;;;19.10;15.10;;;;;;;5.99;85.03;99381.84;101742;1279;139381;-73
2023/11/13 00:46:09;;;;;;;20.70;15.10;;;;;;;5.99;84.98;99380.98;101409;1284;110960;-73
2023/11/13 00:48:37;;;;;;;19.60;15.00;;;;;;;6.00;85.07;99379.74;101576;1277;138983;-73
2023/11/13 00:51:05;;;;;;;19.40;15.30;;;;;;;6.03;85.12;99385.52;102047;1281;98114;-73
2023/11/13 00:53:36;;;;;;;19.50;15.50;;;;;;;6.03;85.00;99385.85;101996;1282;107342;-71
2023/11/13 00:56:04;;;;;;;20.00;16.20;;;;;;;6.00;84.79;99384.20;101738;1280;138337;-72
2023/11/13 00:58:32;;;;;;;21.80;15.90;;;;;;;5.98;84.90;99382.39;101946;1278;110872;-71
2023/11/13 01:00:59;;;;;;;19.30;14.70;;;;;;;5.94;85.06;99384.38;101840;1281;137803;-70
2023/11/13 01:03:26;;;;;;;20.10;14.70;;;;;;;5.95;85.10;99389.89;101762;1280;97713;-72
2023/11/13 01:05:54;;;;;;;18.50;14.30;;;;;;;5.93;84.88;99392.87;101775;1282;108378;-71
2023/11/13 01:08:23;;;;;;;18.50;13.40;;;;;;;5.89;84.81;99393.63;101808;1276;97848;-72
2023/11/13 01:10:50;;;;;;;17.80;14.50;;;;;;;5.89;84.97;99393.11;101876;1282;110801;-72
2023/11/13 01:13:17;;;;;;;19.40;14.60;;;;;;;5.90;85.25;99391.02;101817;1280;140007;-72
2023/11/13 01:15:45;;;;;;;18.70;14.60;;;;;;;5.89;85.16;99395.34;101971;1280;99632;-73
2023/11/13 01:18:13;;;;;;;19.70;15.10;;;;;;;5.90;85.10;99396.38;101798;1281;137884;-73
2023/11/13 01:20:40;;;;;;;18.50;15.20;;;;;;;5.87;84.96;99397.64;101719;1276;97851;-72
2023/11/13 01:23:08;;;;;;;17.60;13.90;;;;;;;5.82;85.11;99399.34;101823;1279;111346;-74
2023/11/13 01:25:35;;;;;;;18.90;13.50;;;;;;;5.78;85.02;99397.20;101626;1282;139334;-70
2023/11/13 01:28:02;;;;;;;16.50;12.60;;;;;;;5.74;85.21;99400.92;101987;1276;98102;-72
2023/11/13 01:30:29;;;;;;;17.30;12.10;;;;;;;5.73;85.19;99403.36;101770;1277;138559;-70
2023/11/13 01:32:56;;;;;;;19.00;12.40;;;;;;;5.77;85.34;99404.67;102094;1280;97967;-71
2023/11/13 01:35:25;;;;;;;15.10;12.00;;;;;;;5.81;85.40;99409.56;101842;1281;111240;-71
2023/11/13 01:37:52;;;;;;;15.30;12.70;;;;;;;5.80;85.16;99409.41;101879;1277;137866;-72
2023/11/13 01:40:20;;;;;;;16.10;12.40;;;;;;;5.81;85.25;99409.02;101582;1277;97820;-71
2023/11/13 01:42:48;;;;;;;16.00;12.40;;;;;;;5.84;85.17;99407.91;101847;1276;137703;-73
2023/11/13 01:45:17;;;;;;;13.60;11.10;;;;;;;5.83;85.10;99405.17;101747;1282;97780;-73
2023/11/13 01:47:45;;;;;;;13.50;10.60;;;;;;;5.86;85.26;99404.58;102240;1281;110715;-72
2023/11/13 01:50:14;;;;;;;14.70;10.30;;;;;;;5.86;85.20;99405.61;101538;1282;139057;-72
2023/11/13 01:52:42;;;;;;;12.30;9.30;;;;;;;5.89;85.32;99404.33;101751;1281;97976;-72
2023/11/13 01:55:12;;;;;;;13.20;9.90;;;;;;;5.92;85.21;99397.89;101701;1283;138482;-73
2023/11/13 01:57:40;;;;;;;13.40;10.60;;;;;;;5.97;85.22;99400.53;101892;1283;97836;-72
2023/11/13 02:00:10;;;;;;;14.00;9.50;;;;;;;6.02;85.16;99400.02;101468;1283;138473;-72
2023/11/13 02:02:41;;;;;;;11.50;9.50;;;;;;;6.06;85.24;99401.30;102225;1279;106865;-73
2023/11/13 02:05:08;;;;;;;14.20;10.20;;;;;;;6.09;85.22;99393.79;101783;1282;97845;-71
2023/11/13 02:07:36;;;;;;;10.30;8.80;;;;;;;6.09;84.88;99393.80;101838;1277;137890;-72
2023/11/13 02:10:04;;;;;;;11.20;8.60;;;;;;;6.06;84.90;99395.79;102042;1280;97859;-73
2023/11/13 02:12:34;;;;;;;10.70;8.20;;;;;;;6.04;84.67;99394.46;101816;1279;138483;-71
2023/11/13 02:15:02;;;;;;;7.80;6.70;;;;;;;6.02;84.69;99398.48;101510;1280;107802;-73
2023/11/13 02:17:29;;;;;;;9.80;7.60;;;;;;;6.02;84.82;99394.52;101865;1277;97799;-72
2023/11/13 02:19:56;;;;;;;8.70;7.40;;;;;;;6.05;84.72;99396.51;101575;1280;138918;-72
2023/11/13 02:22:24;;;;;;;8.20;7.30;;;;;;;6.06;84.69;99395.60;101633;1282;97838;-72
2023/11/13 02:24:51;;;;;;;10.20;7.90;;;;;;;6.11;84.56;99393.76;101788;1282;137503;-73
2023/11/13 02:27:19;;;;;;;10.60;8.40;;;;;;;6.14;84.59;99391.11;102370;1280;108213;-71
2023/11/13 02:29:46;;;;;;;10.70;8.50;;;;;;;6.13;84.33;99399.24;102018;1277;98564;-72
2023/11/13 02:32:14;;;;;;;9.50;8.00;;;;;;;6.09;84.34;99400.52;102278;1277;137369;-71
2023/11/13 02:34:43;;;;;;;10.40;7.30;;;;;;;6.07;84.40;99399.90;102114;1277;97839;-72
2023/11/13 02:37:12;;;;;;;9.10;6.90;;;;;;;6.06;84.34;99400.77;101785;1277;138284;-72
2023/11/13 02:39:40;;;;;;;9.30;6.60;;;;;;;6.04;84.34;99405.14;101581;1283;108166;-72
2023/11/13 02:42:08;;;;;;;9.20;6.60;;;;;;;6.03;84.35;99406.90;101899;1276;139500;-72
2023/11/13 02:44:35;;;;;;;8.50;7.10;;;;;;;6.06;84.52;99407.52;102016;1282;107918;-72
2023/11/13 02:47:03;;;;;;;10.20;7.70;;;;;;;6.08;84.53;99408.67;102022;1282;97902;-71
2023/11/13 02:49:31;;;;;;;10.30;8.00;;;;;;;6.09;84.68;99412.78;101863;1280;137709;-70
2023/11/13 02:51:58;;;;;;;9.50;7.90;;;;;;;6.12;84.75;99414.11;101727;1276;107970;-69
2023/11/13 02:54:26;;;;;;;10.30;8.00;;;;;;;6.12;84.64;99413.93;101869;1279;137859;-69
2023/11/13 02:56:53;;;;;;;11.20;7.30;;;;;;;6.08;84.53;99419.04;101738;1282;107798;-72
2023/11/13 02:59:20;;;;;;;10.60;7.20;;;;;;;6.05;84.51;99421.34;101736;1282;96608;-71
2023/11/13 03:01:47;;;;;;;9.10;7.30;;;;;;;6.05;84.88;99424.11;101669;1282;138523;-70
2023/11/13 03:04:14;;;;;;;9.00;7.10;;;;;;;6.05;84.75;99425.32;101652;1279;107496;-72
2023/11/13 03:06:41;;;;;;;8.20;6.40;;;;;;;6.02;85.00;99424.02;101932;1281;138868;-72
2023/11/13 03:09:09;;;;;;;7.70;6.90;;;;;;;6.00;84.94;99423.38;101673;1280;107808;-72
2023/11/13 03:11:36;;;;;;;8.70;7.20;;;;;;;6.02;85.06;99419.01;101820;1280;97812;-71
2023/11/13 03:14:04;;;;;;;9.80;7.50;;;;;;;6.04;85.24;99417.25;101622;1277;137357;-71
2023/11/13 03:16:31;;;;;;;8.50;6.90;;;;;;;6.03;85.03;99414.34;101808;1284;107252;-70
2023/11/13 03:18:58;;;;;;;8.90;8.00;;;;;;;6.01;85.04;99412.13;101594;1282;137549;-70
2023/11/13 03:21:25;;;;;;;8.20;7.20;;;;;;;5.96;85.25;99414.86;101705;1280;108443;-71
2023/11/13 03:23:52;;;;;;;7.70;6.80;;;;;;;5.95;85.24;99409.20;102244;1278;95998;-71
2023/11/13 03:26:21;;;;;;;9.30;7.10;;;;;;;5.93;85.20;99401.14;101721;1279;110659;-72
2023/11/13 03:28:48;;;;;;;7.60;6.40;;;;;;;5.92;85.31;99399.09;101826;1277;107945;-71
2023/11/13 03:31:15;;;;;;;8.40;6.90;;;;;;;5.95;85.19;99401.79;102009;1276;138308;-72
2023/11/13 03:33:43;;;;;;;6.60;5.80;;;;;;;5.98;85.49;99400.32;101782;1282;107407;-70
2023/11/13 03:36:10;;;;;;;9.00;6.20;;;;;;;6.03;85.42;99401.04;102398;1276;138172;-71
2023/11/13 03:38:37;;;;;;;7.70;6.50;;;;;;;6.06;85.03;99400.59;102377;1282;111893;-71
2023/11/13 03:41:05;;;;;;;9.10;6.80;;;;;;;6.10;85.31;99394.30;101957;1279;108390;-72
2023/11/13 03:43:32;;;;;;;7.60;6.80;;;;;;;6.09;85.12;99392.60;101673;1277;138877;-71
2023/11/13 03:45:59;;;;;;;7.70;6.90;;;;;;;6.13;84.77;99396.33;101758;1277;107648;-72
2023/11/13 03:48:26;;;;;;;6.60;6.00;;;;;;;6.10;84.73;99403.10;101885;1277;138957;-72
2023/11/13 03:50:53;;;;;;;7.40;5.70;;;;;;;6.09;84.70;99406.41;102107;1276;111534;-72
2023/11/13 03:53:21;;;;;;;6.20;4.70;;;;;;;6.09;84.69;99411.60;101832;1282;107622;-73
2023/11/13 03:55:49;;;;;;;5.70;5.00;;;;;;;6.06;84.34;99412.69;101874;1282;138939;-72
2023/11/13 03:58:16;;;;;;;5.50;4.40;;;;;;;6.04;84.29;99411.35;101746;1282;107876;-73
2023/11/13 04:00:43;;;;;;;5.20;4.40;;;;;;;6.05;84.43;99414.95;102256;1282;137528;-72
2023/11/13 04:03:10;;;;;;;4.90;4.20;;;;;;;6.08;84.51;99411.27;101788;1279;111294;-74
2023/11/13 04:05:38;;;;;;;4.60;4.10;;;;;;;6.07;84.27;99415.44;101937;1282;108423;-73
2023/11/13 04:08:07;;;;;;;5.20;4.00;;;;;;;6.05;84.16;99418.08;101800;1283;137666;-73
2023/11/13 04:10:34;;;;;;;5.20;3.80;;;;;;;6.00;83.95;99413.38;102143;1280;107392;-73
2023/11/13 04:13:02;;;;;;;4.10;3.70;;;;;;;5.94;84.03;99414.92;101833;1279;137897;-71
2023/11/13 04:15:29;;;;;;;3.90;3.40;;;;;;;5.93;84.25;99416.15;101981;1280;110560;-74
2023/11/13 04:17:58;;;;;;;5.40;3.40;;;;;;;5.89;83.80;99417.63;101835;1282;138336;-68
2023/11/13 04:20:25;;;;;;;5.60;3.20;;;;;;;5.83;83.90;99415.70;102014;1282;97933;-73
2023/11/13 04:22:54;;;;;;;3.50;2.70;;;;;;;5.79;83.96;99415.81;101710;1277;109601;-73
2023/11/13 04:25:21;;;;;;;3.50;2.90;;;;;;;5.80;84.31;99414.40;101689;1280;139202;-72
2023/11/13 04:27:49;;;;;;;3.10;2.60;;;;;;;5.80;84.31;99412.85;101790;1284;110070;-72
2023/11/13 04:30:17;;;;;;;5.10;3.20;;;;;;;5.78;84.12;99412.73;101512;1282;138842;-72
2023/11/13 04:32:45;;;;;;;4.50;3.30;;;;;;;5.79;84.39;99410.29;101687;1280;97940;-72
2023/11/13 04:35:13;;;;;;;3.80;3.50;;;;;;;5.79;84.35;99409.79;101924;1277;107776;-72
2023/11/13 04:37:40;;;;;;;4.50;3.50;;;;;;;5.81;84.55;99411.29;101558;1280;138605;-71
2023/11/13 04:40:10;;;;;;;5.40;3.30;;;;;;;5.80;84.44;99409.39;101749;1280;113845;-71
2023/11/13 04:42:37;;;;;;;4.50;3.80;;;;;;;5.88;84.75;99411.94;101591;1283;138429;-72
2023/11/13 04:45:04;;;;;;;4.90;4.70;;;;;;;5.94;84.88;99409.40;101873;1280;97832;-72
2023/11/13 04:47:32;;;;;;;5.20;3.80;;;;;;;6.01;84.67;99412.31;101810;1282;107449;-73
2023/11/13 04:49:59;;;;;;;6.00;4.80;;;;;;;6.05;84.52;99413.92;101787;1280;138095;-72
2023/11/13 04:52:26;;;;;;;5.70;4.90;;;;;;;6.05;84.55;99418.41;101985;1277;112013;-72
2023/11/13 04:54:54;;;;;;;7.70;5.40;;;;;;;6.05;84.34;99420.47;101714;1277;138271;-72
2023/11/13 04:57:21;;;;;;;6.90;5.80;;;;;;;6.04;84.43;99421.20;102323;1276;97725;-72
2023/11/13 04:59:48;;;;;;;6.60;5.20;;;;;;;6.06;84.57;99419.25;101953;1282;107993;-70
2023/11/13 05:02:15;;;;;;;9.00;5.40;;;;;;;6.09;84.75;99415.55;101925;1281;137166;-72
2023/11/13 05:04:43;;;;;;;6.60;5.70;;;;;;;6.16;85.03;99415.36;102146;1277;111930;-72
2023/11/13 05:07:10;;;;;;;7.70;6.30;;;;;;;6.21;84.61;99408.33;101778;1276;138809;-72
2023/11/13 05:09:37;;;;;;;10.30;7.50;;;;;;;6.23;84.57;99407.21;101803;1282;97832;-71
2023/11/13 05:12:05;;;;;;;8.00;7.20;;;;;;;6.24;84.71;99413.75;101549;1281;137765;-70
2023/11/13 05:14:32;;;;;;;10.00;8.30;;;;;;;6.27;84.96;99411.42;102374;1276;96038;-72
2023/11/13 05:16:59;;;;;;;10.70;9.30;;;;;;;6.30;84.89;99411.00;102049;1281;112259;-72
2023/11/13 05:19:27;;;;;;;11.00;9.30;;;;;;;6.30;84.87;99414.64;101675;1277;137558;-71
2023/11/13 05:21:54;;;;;;;12.10;9.70;;;;;;;6.29;84.79;99416.91;101693;1282;97906;-70
2023/11/13 05:24:21;;;;;;;10.70;8.80;;;;;;;6.25;84.85;99425.30;102171;1276;138388;-72
2023/11/13 05:26:51;;;;;;;12.20;9.90;;;;;;;6.23;85.06;99420.52;101760;1280;97859;-72
2023/11/13 05:29:18;;;;;;;10.30;8.90;;;;;;;6.19;84.73;99423.23;101668;1283;112617;-72
2023/11/13 05:31:45;;;;;;;12.30;9.50;;;;;;;6.10;84.89;99425.70;101779;1276;138710;-72
2023/11/13 05:34:12;;;;;;;12.50;9.70;;;;;;;6.08;85.06;99427.65;101949;1283;97136;-72
2023/11/13 05:36:39;;;;;;;11.90;9.50;;;;;;;6.14;85.33;99435.28;101891;1277;138800;-72
2023/11/13 05:39:08;;;;;;;13.70;10.80;;;;;;;6.17;85.28;99433.80;101815;1280;97989;-72
2023/11/13 05:41:37;;;;;;;12.00;10.70;;;;;;;6.17;85.20;99434.86;101933;1276;112514;-72
2023/11/13 05:44:05;;;;;;;15.30;11.90;;;;;;;6.16;85.36;99440.23;101729;1276;138112;-72
2023/11/13 05:46:33;;;;;;;11.80;10.60;;;;;;;6.16;85.35;99442.13;101874;1276;99393;-73
2023/11/13 05:49:00;;;;;;;14.40;11.90;;;;;;;6.15;85.51;99443.88;102022;1277;137790;-72
2023/11/13 05:51:27;;;;;;;19.00;12.20;;;;;;;6.18;85.54;99442.95;101798;1280;97840;-72
2023/11/13 05:53:55;;;;;;;16.20;12.50;;;;;;;6.14;85.45;99445.29;101735;1281;112252;-71
2023/11/13 05:56:22;;;;;;;16.00;12.50;;;;;;;6.13;85.54;99439.61;101800;1276;108515;-72
2023/11/13 05:58:50;;;;;;;17.40;12.20;;;;;;;6.13;85.55;99439.81;102200;1279;96296;-72
2023/11/13 06:01:20;;;;;;;17.60;12.30;;;;;;;6.12;85.46;99441.05;101979;1279;138999;-71
2023/11/13 06:03:49;;;;;;;14.50;11.60;;;;;;;6.14;85.65;99444.27;102198;1278;96169;-72
2023/11/13 06:06:17;;;;;;;13.50;10.90;;;;;;;6.15;85.49;99445.44;101930;1279;138765;-72
2023/11/13 06:08:45;;;;;;;17.40;12.40;;;;;;;6.19;85.45;99448.42;101799;1277;107046;-73
2023/11/13 06:11:13;;;;;;;15.20;12.00;;;;;;;6.22;85.46;99450.57;101765;1276;97848;-74
2023/11/13 06:13:40;;;;;;;14.90;11.80;;;;;;;6.27;85.05;99451.48;101436;1279;138200;-74
2023/11/13 06:16:09;;;;;;;19.70;12.80;;;;;;;6.24;84.99;99452.58;102027;1281;98572;-76
2023/11/13 06:18:47;;;;;;;18.00;13.00;;;;;;;6.23;84.93;99454.36;102283;1276;138313;-76
2023/11/13 06:21:14;;;;;;;16.80;12.80;;;;;;;6.20;84.69;99456.70;102444;1282;105574;-76
2023/11/13 06:23:43;;;;;;;14.10;12.10;;;;;;;6.15;84.58;99463.02;101996;1280;96989;-75
2023/11/13 06:26:12;;;;;;;15.70;11.40;;;;;;;6.10;84.54;99462.81;102172;1276;138160;-74
2023/11/13 06:28:40;;;;;;;20.50;11.60;;;;;;;6.05;84.40;99462.41;102261;1278;97928;-74
2023/11/13 06:31:08;;;;;;;16.00;11.30;;;;;;;6.02;84.57;99460.77;102214;1280;138242;-74
2023/11/13 06:33:36;;;;;;;15.60;11.20;;;;;;;6.01;84.38;99463.23;101017;1280;1003340;-76
2023/11/13 06:36:03;;;;;;;15.40;10.60;;;;;;;6.00;84.54;99465.49;101729;1279;139562;-73
2023/11/13 06:38:31;;;;;;;13.60;9.90;;;;;;;6.04;84.53;99471.40;101728;1279;108037;-74
2023/11/13 06:40:59;;;;;;;15.60;11.10;;;;;;;6.10;84.43;99470.95;102363;1281;96156;-74
2023/11/13 06:43:26;;;;;;;16.20;11.80;;;;;;;6.16;84.35;99473.19;101707;1279;138313;-75
2023/11/13 06:45:53;;;;;;;15.70;11.60;;;;;;;6.18;84.16;99471.59;101751;1277;108327;-74
2023/11/13 06:48:20;;;;;;;17.40;12.00;;;;;;;6.20;83.87;99473.95;101566;1282;138519;-75
2023/11/13 06:50:48;;;;;;;19.40;12.30;;;;;;;6.25;84.02;99476.73;101755;1283;107487;-75
2023/11/13 06:53:15;;;;;;;15.00;11.90;;;;;;;6.28;83.99;99477.18;102140;1280;97837;-74
2023/11/13 06:55:42;;;;;;;15.30;11.60;;;;;;;6.28;83.47;99478.91;101796;1277;137592;-74
2023/11/13 06:58:09;;;;;;;16.10;10.90;;;;;;;6.25;83.43;99483.63;102084;1279;107003;-75
2023/11/13 07:00:36;;;;;;;19.50;11.60;;;;;;;6.20;83.29;99473.77;102053;1279;139887;-73
2023/11/13 07:03:04;;;;;;;15.20;11.20;;;;;;;6.23;83.33;99478.70;101530;1282;108665;-74
2023/11/13 07:05:31;;;;;;;15.80;10.20;;;;;;;6.26;83.05;99484.14;101883;1279;97934;-73
2023/11/13 07:07:59;;;;;;;15.70;9.60;;;;;;;6.28;83.07;99487.36;101576;1280;138738;-74
2023/11/13 07:10:31;;;;;;;14.90;10.40;;;;;;;6.29;82.87;99487.69;102287;1277;107525;-74
2023/11/13 07:12:58;;;;;;;16.40;10.10;;;;;;;6.35;82.66;99484.06;101621;1279;138415;-76
2023/11/13 07:15:26;;;;;;;13.60;10.10;;;;;;;6.42;82.53;99479.22;101557;1282;108979;-75
2023/11/13 07:17:53;;;;;;;14.30;10.80;;;;;;;6.43;82.09;99477.09;102029;1276;96351;-74
2023/11/13 07:20:20;;;;;;;14.40;10.60;;;;;;;6.47;81.92;99480.81;102338;1279;138756;-74
2023/11/13 07:22:50;;;;;;;16.30;10.20;;;;;;;6.47;81.89;99483.92;101863;1280;107111;-73
2023/11/13 07:25:18;;;;;;;14.40;10.30;;;;;;;6.50;81.73;99483.50;102514;1276;138347;-75
2023/11/13 07:27:45;;;;;;;15.00;11.00;;;;;;;6.51;81.72;99485.02;102803;1276;106886;-74
2023/11/13 07:30:14;;;;;;;15.70;10.60;;;;;;;6.50;81.59;99483.30;102095;1278;139908;-74
2023/11/13 07:32:42;;;;;;;15.90;10.30;;;;;;;6.51;81.35;99485.02;101704;1277;111367;-74
2023/11/13 07:35:10;;;;;;;14.20;9.40;;;;;;;6.49;81.19;99484.03;102810;1277;107077;-74
2023/11/13 07:37:37;;;;;;;13.90;9.30;;;;;;;6.49;81.02;99482.66;102627;1279;138956;-73
2023/11/13 07:40:09;;;;;;;14.10;9.00;;;;;;;6.53;80.87;99484.42;101744;1279;107209;-73
2023/11/13 07:42:36;;;;;;;17.60;9.80;;;;;;;6.56;80.73;99483.48;101738;1277;137889;-72
2023/11/13 07:45:05;;;;;;;12.90;10.20;;;;;;;6.62;80.56;99486.59;102203;1280;111536;-72
2023/11/13 07:47:32;;;;;;;15.80;10.20;;;;;;;6.64;80.37;99493.45;101961;1282;107739;-73
2023/11/13 07:49:59;;;;;;;13.30;9.70;;;;;;;6.65;80.35;99489.64;101615;1280;137960;-73
2023/11/13 07:52:28;;;;;;;18.50;10.20;;;;;;;6.66;80.37;99494.25;101596;1276;108717;-73
2023/11/13 07:54:55;;;;;;;15.90;10.60;;;;;;;6.69;80.30;99499.20;102231;1279;138196;-73
2023/11/13 07:57:23;;;;;;;13.30;9.10;;;;;;;6.69;80.11;99498.86;102567;1279;111623;-73
2023/11/13 07:59:51;;;;;;;12.20;8.90;;;;;;;6.68;79.95;99499.23;101852;1279;108355;-73
2023/11/13 08:02:19;;;;;;;14.70;9.30;;;;;;;6.67;79.96;99495.79;102397;1279;138729;-72
2023/11/13 08:04:47;;;;;;;12.20;9.00;;;;;;;6.70;79.67;99504.34;101621;1276;107969;-73
2023/11/13 08:07:16;;;;;;;17.50;9.90;;;;;;;6.71;79.73;99503.46;101398;1281;209678;-73
2023/11/13 08:09:51;;;;;;;10.90;8.90;;;;;;;6.72;79.64;99507.92;102060;1282;111852;-73
2023/11/13 08:12:19;;;;;;;15.10;9.30;;;;;;;6.71;79.33;99510.70;101509;1282;138687;-72
2023/11/13 08:14:46;;;;;;;10.60;8.70;;;;;;;6.67;79.35;99519.45;101704;1280;1002494;-74
2023/11/13 08:17:14;;;;;;;11.10;8.90;;;;;;;6.64;79.14;99524.02;101578;1279;107881;-73
2023/11/13 08:19:42;;;;;;;13.90;9.00;;;;;;;6.61;79.11;99526.84;101471;1281;138433;-73
2023/11/13 08:22:09;;;;;;;12.50;9.70;;;;;;;6.61;79.18;99522.21;101611;1282;112666;-72
2023/11/13 08:24:37;;;;;;;13.10;9.50;;;;;;;6.60;79.31;99523.79;101495;1282;138656;-73
2023/11/13 08:27:06;;;;;;;12.60;9.10;;;;;;;6.62;79.25;99528.04;101674;1281;97844;-73
2023/11/13 08:29:34;;;;;;;16.00;8.90;;;;;;;6.65;79.12;99527.63;101197;1276;107066;-73
2023/11/13 08:32:01;;;;;;;13.20;9.60;;;;;;;6.68;78.96;99525.30;100938;1280;137733;-73
2023/11/13 08:34:29;;;;;;;12.20;9.00;;;;;;;6.70;78.99;99528.01;101620;1277;112048;-72
2023/11/13 08:36:56;;;;;;;16.30;10.10;;;;;;;6.74;78.84;99527.56;101528;1280;137548;-74
2023/11/13 08:39:28;;;;;;;14.70;9.40;;;;;;;6.75;78.61;99524.58;101605;1280;97833;-71
2023/11/13 08:41:56;;;;;;;11.20;8.80;;;;;;;6.74;78.45;99523.25;101793;1280;105803;-77
2023/11/13 08:44:25;;;;;;;11.40;8.30;;;;;;;6.75;78.59;99528.23;101907;1277;97736;-77
2023/11/13 08:46:54;;;;;;;11.00;7.80;;;;;;;6.78;78.57;99526.22;101437;1281;110971;-74
2023/11/13 08:49:22;;;;;;;11.00;8.00;;;;;;;6.88;78.42;99517.83;101711;1279;138258;-74
2023/11/13 08:51:49;;;;;;;13.20;8.50;;;;;;;7.01;78.38;99515.89;101440;1277;98376;-75
2023/11/13 08:54:16;;;;;;;13.90;8.10;;;;;;;7.12;77.94;99518.48;101658;1281;138361;-76
2023/11/13 08:56:49;;;;;;;13.00;9.30;;;;;;;7.17;77.51;99517.65;101797;1281;97847;-73
2023/11/13 08:59:17;;;;;;;15.10;8.60;;;;;;;7.22;77.32;99516.48;101668;1276;111814;-74
2023/11/13 09:01:44;;;;;;;11.30;8.50;;;;;;;7.24;77.11;99512.59;101472;1277;138117;-75
2023/11/13 09:04:11;;;;;;;12.70;9.00;;;;;;;7.27;77.05;99515.80;101647;1282;97836;-76
2023/11/13 09:06:38;;;;;;;12.90;9.10;;;;;;;7.31;77.10;99514.48;101492;1277;137740;-74
2023/11/13 09:09:12;;;;;;;14.50;8.80;;;;;;;7.34;76.91;99512.81;101546;1279;97822;-74
2023/11/13 09:11:40;;;;;;;14.00;9.50;;;;;;;7.39;76.95;99517.00;101556;1280;111383;-75
2023/11/13 09:14:09;;;;;;;10.90;8.80;;;;;;;7.44;76.53;99522.19;101439;1280;137551;-74
2023/11/13 09:16:37;;;;;;;13.60;9.10;;;;;;;7.45;76.48;99521.48;101518;1277;97892;-75
2023/11/13 09:19:05;;;;;;;16.10;8.90;;;;;;;7.44;76.21;99518.58;101710;1278;138243;-75
2023/11/13 09:21:34;;;;;;;11.30;9.10;;;;;;;7.45;76.29;99518.71;101662;1277;97950;-75
2023/11/13 09:24:02;;;;;;;12.80;9.60;;;;;;;7.48;76.11;99519.98;101543;1276;138213;-71
2023/11/13 09:26:30;;;;;;;12.40;9.30;;;;;;;7.49;76.10;99522.21;101639;1280;107969;-74
2023/11/13 09:28:57;;;;;;;13.30;8.90;;;;;;;7.52;76.18;99524.70;101792;1280;97857;-73
2023/11/13 09:31:24;;;;;;;14.30;9.70;;;;;;;7.54;76.03;99520.67;101418;1280;138476;-75
2023/11/13 09:33:52;;;;;;;13.20;9.20;;;;;;;7.54;75.80;99516.70;101539;1277;98037;-75
2023/11/13 09:36:19;;;;;;;11.80;8.80;;;;;;;7.53;75.64;99521.02;101413;1277;138326;-73
2023/11/13 09:38:49;;;;;;;13.80;9.50;;;;;;;7.51;75.55;99523.36;101605;1276;107416;-75
2023/11/13 09:41:19;;;;;;;14.20;9.40;;;;;;;7.44;75.51;99525.48;101647;1282;98327;-75
2023/11/13 09:43:47;;;;;;;12.30;9.70;;;;;;;7.40;75.78;99520.80;101535;1281;138144;-75
2023/11/13 09:46:20;;;;;;;12.50;8.90;;;;;;;7.38;75.79;99527.94;101522;1277;97701;-75
2023/11/13 09:48:55;;;;;;;14.70;9.20;;;;;;;7.32;75.72;99527.07;101281;1279;138370;-75
2023/11/13 09:51:24;;;;;;;10.70;7.80;;;;;;;7.32;76.12;99528.60;101648;1279;108079;-75
2023/11/13 09:53:57;;;;;;;12.90;8.10;;;;;;;7.38;76.18;99527.93;101544;1281;98511;-75
2023/11/13 09:56:27;;;;;;;10.50;8.60;;;;;;;7.42;76.02;99526.74;101539;1276;107001;-75
2023/11/13 09:58:57;;;;;;;10.80;8.80;;;;;;;7.50;76.13;99524.42;101499;1280;97958;-76
2023/11/13 10:01:24;;;;;;;11.60;9.00;;;;;;;7.58;76.16;99527.48;101446;1280;137601;-75
2023/11/13 10:03:54;;;;;;;13.80;9.40;;;;;;;7.64;75.78;99530.55;101576;1282;108494;-75
2023/11/13 10:06:23;;;;;;;14.70;9.70;;;;;;;7.66;75.50;99525.28;101540;1277;137994;-75
2023/11/13 10:08:53;;;;;;;12.20;9.40;;;;;;;7.70;75.54;99525.34;101607;1280;108009;-75
2023/11/13 10:11:21;;;;;;;15.50;9.40;;;;;;;7.75;75.34;99530.93;101660;1281;97929;-75
2023/11/13 10:13:48;;;;;;;15.60;10.20;;;;;;;7.76;75.21;99530.18;101454;1282;137825;-74
2023/11/13 10:16:21;;;;;;;13.40;10.10;;;;;;;7.74;75.11;99534.41;101436;1279;105808;-75
2023/11/13 10:18:49;;;;;;;12.00;10.10;;;;;;;7.71;74.82;99536.73;101461;1277;137678;-75
2023/11/13 10:21:32;;;;;;;12.70;9.60;;;;;;;7.69;75.05;99533.52;101607;1276;107121;-76
2023/11/13 10:24:11;;;;;;;14.50;9.20;;;;;;;7.70;75.16;99531.94;101522;1276;97848;-75
2023/11/13 10:26:39;;;;;;;12.80;8.90;;;;;;;7.70;75.22;99532.27;101633;1279;109302;-75
2023/11/13 10:29:20;;;;;;;11.70;8.70;;;;;;;7.72;75.15;99535.33;101587;1282;107920;-75
2023/11/13 10:31:48;;;;;;;11.60;9.00;;;;;;;7.79;75.21;99527.83;101694;1279;137728;-76
2023/11/13 10:34:16;;;;;;;13.90;9.70;;;;;;;7.84;75.11;99528.17;101619;1276;108529;-74
2023/11/13 10:36:44;;;;;;;12.00;9.50;;;;;;;7.91;75.04;99523.15;101523;1282;138042;-75
2023/11/13 10:39:15;;;;;;;14.60;9.60;;;;;;;7.89;74.73;99525.77;101637;1279;111330;-75
2023/11/13 10:41:50;;;;;;;14.20;10.20;;;;;;;7.83;74.61;99524.23;101585;1281;108363;-75
2023/11/13 10:44:27;;;;;;;13.50;10.00;;;;;;;7.79;74.57;99522.99;101540;1276;137962;-74
2023/11/13 10:46:54;;;;;;;13.10;10.60;;;;;;;7.75;74.50;99520.86;101685;1281;108188;-75
2023/11/13 10:49:22;;;;;;;13.20;9.90;;;;;;;7.72;74.66;99520.43;101492;1280;137985;-74
2023/11/13 10:51:52;;;;;;;11.40;10.10;;;;;;;7.71;74.67;99519.27;101570;1277;111587;-73
2023/11/13 10:54:23;;;;;;;16.10;10.40;;;;;;;7.69;74.80;99517.95;101422;1279;137988;-74
2023/11/13 10:56:51;;;;;;;11.20;8.60;;;;;;;7.69;74.83;99513.79;101632;1276;97917;-77
2023/11/13 10:59:19;;;;;;;13.00;9.10;;;;;;;7.70;75.02;99518.76;101532;1281;108704;-74
2023/11/13 11:01:51;;;;;;;12.00;9.30;;;;;;;7.76;75.19;99513.75;101542;1279;138101;-77
2023/11/13 11:04:21;;;;;;;13.40;9.70;;;;;;;7.79;75.21;99517.10;101442;1279;111202;-75
2023/11/13 11:06:51;;;;;;;11.30;9.50;;;;;;;7.82;75.05;99515.95;101549;1276;138548;-75
2023/11/13 11:09:19;;;;;;;14.80;10.00;;;;;;;7.86;75.38;99510.98;101358;1283;97838;-76
2023/11/13 11:11:48;;;;;;;13.50;10.50;;;;;;;7.94;75.32;99509.52;101660;1277;108140;-73
2023/11/13 11:14:19;;;;;;;15.80;10.90;;;;;;;8.01;75.28;99509.98;101551;1282;138038;-76
2023/11/13 11:16:54;;;;;;;15.40;10.60;;;;;;;8.07;75.24;99510.81;101625;1276;111491;-76
2023/11/13 11:19:34;;;;;;;13.00;10.60;;;;;;;8.08;74.98;99508.02;101490;1276;138050;-76
2023/11/13 11:22:10;;;;;;;15.00;11.10;;;;;;;8.06;74.84;99506.17;101667;1277;97867;-75